Hanalei, Hawaii
Current Conditions -  °F | °C
As of 3:53 PM on Saturday 22 Nov 2014 (Local Time) from PHLI Reporting Station
Clear Clear  
Wind Chill: 80°   Ceiling: Unl
Heat Index: 82°   Visibility: 10mi
Dew Point: 67°   Wind: 6mph
Humidity: 64%   Direction: 70°ENE
Pressure: 30.01"   Gusts: NA
Location:  22.2°N, 159.49°W
Report Text: PHLI 230153Z 07005KT 10SM CLR 27/19 A3001 RMK AO2 SLP158 T02670194 $
Loading
Personal Weather Stations






























Interactive Weather Map New forecast layout! Learn more

10-Day Weather Forecast

Advertisements
Track Severe Weather on mobile